createdAt,value
2022-12-27T00:01:47.922Z,6.10
2022-12-27T00:04:16.296Z,6.40
2022-12-27T00:06:44.725Z,6.50
2022-12-27T00:09:13.193Z,6.20
2022-12-27T00:11:41.688Z,6.10
2022-12-27T00:14:11.876Z,6.30
2022-12-27T00:16:40.591Z,6.50
2022-12-27T00:19:10.365Z,7.20
2022-12-27T00:21:39.045Z,7.90
2022-12-27T00:24:07.676Z,7.50
2022-12-27T00:26:36.750Z,6.70
2022-12-27T00:29:05.238Z,7.30
2022-12-27T00:31:34.467Z,6.90
2022-12-27T00:34:05.756Z,6.70
2022-12-27T00:36:36.205Z,6.60
2022-12-27T00:39:04.873Z,6.30
2022-12-27T00:41:33.732Z,6.10
2022-12-27T00:44:02.165Z,5.90
2022-12-27T00:46:30.528Z,5.80
2022-12-27T00:48:58.966Z,5.60
2022-12-27T00:51:28.220Z,5.60
2022-12-27T00:53:58.195Z,5.70
2022-12-27T00:56:28.069Z,5.70
2022-12-27T00:58:56.882Z,5.70
2022-12-27T01:01:27.293Z,5.80
2022-12-27T01:03:56.045Z,5.80
2022-12-27T01:06:28.894Z,5.90
2022-12-27T01:08:59.141Z,6.10
2022-12-27T01:11:30.902Z,6.10
2022-12-27T01:14:00.368Z,7.10
2022-12-27T01:16:30.430Z,6.90
2022-12-27T01:19:00.405Z,6.70
2022-12-27T01:21:31.114Z,6.70
2022-12-27T01:24:01.272Z,7.30
2022-12-27T01:26:29.815Z,6.90
2022-12-27T01:28:58.364Z,6.80
2022-12-27T01:31:29.030Z,7.10
2022-12-27T01:33:59.457Z,7.00
2022-12-27T01:36:28.962Z,8.00
2022-12-27T01:38:57.728Z,7.30
2022-12-27T01:41:47.550Z,6.90
2022-12-27T01:44:49.494Z,6.50
2022-12-27T01:47:28.394Z,6.30
2022-12-27T01:50:08.031Z,6.50
2022-12-27T01:52:39.969Z,6.20
2022-12-27T01:55:14.939Z,6.20
2022-12-27T01:57:45.091Z,6.10
2022-12-27T02:00:14.044Z,6.00
2022-12-27T02:02:43.020Z,6.00
2022-12-27T02:05:12.758Z,5.90
2022-12-27T02:08:00.324Z,6.40
2022-12-27T02:10:30.418Z,6.80
2022-12-27T02:13:01.968Z,7.10
2022-12-27T02:15:30.431Z,7.40
2022-12-27T02:17:58.939Z,7.50
2022-12-27T02:20:32.408Z,7.60
2022-12-27T02:23:59.022Z,7.80
2022-12-27T02:26:53.484Z,7.70
2022-12-27T02:29:39.384Z,7.70
2022-12-27T02:32:10.375Z,7.70
2022-12-27T02:34:58.009Z,8.00
2022-12-27T02:37:31.953Z,7.90
2022-12-27T02:40:22.889Z,7.90
2022-12-27T02:43:10.916Z,7.80
2022-12-27T02:46:03.433Z,7.90
2022-12-27T02:48:49.496Z,8.00
2022-12-27T02:51:49.927Z,8.00
2022-12-27T02:54:36.658Z,7.80
2022-12-27T02:57:12.727Z,7.80
2022-12-27T03:00:23.473Z,7.40
2022-12-27T03:03:24.748Z,6.80
2022-12-27T03:06:31.480Z,7.20
2022-12-27T03:09:06.050Z,7.00
2022-12-27T03:12:02.328Z,7.20
2022-12-27T03:14:54.216Z,7.20
2022-12-27T03:17:29.355Z,7.10
2022-12-27T03:20:21.939Z,6.90
2022-12-27T03:23:11.235Z,6.80
2022-12-27T03:25:41.733Z,6.70
2022-12-27T03:28:35.865Z,6.50
2022-12-27T03:31:25.667Z,6.20
2022-12-27T03:34:04.745Z,6.30
2022-12-27T03:36:52.932Z,6.30
2022-12-27T03:39:27.379Z,6.70
2022-12-27T03:42:19.000Z,6.80
2022-12-27T03:44:47.554Z,6.30
2022-12-27T03:47:23.509Z,6.20
2022-12-27T03:49:55.841Z,6.20
2022-12-27T03:52:29.876Z,6.20
2022-12-27T03:54:59.523Z,6.10
2022-12-27T03:57:29.004Z,5.90
2022-12-27T03:59:57.627Z,5.80
2022-12-27T04:02:26.515Z,5.70
2022-12-27T04:04:55.123Z,5.70
2022-12-27T04:07:24.726Z,5.70
2022-12-27T04:10:10.622Z,5.80
2022-12-27T04:12:56.804Z,5.70
2022-12-27T04:15:42.722Z,5.60
2022-12-27T04:18:28.945Z,5.50
2022-12-27T04:21:15.015Z,5.40
2022-12-27T04:24:02.152Z,5.40
2022-12-27T04:26:48.133Z,5.30
2022-12-27T04:29:34.054Z,5.30
2022-12-27T04:32:19.948Z,5.20
2022-12-27T04:34:48.364Z,5.30
2022-12-27T04:37:19.106Z,5.20
2022-12-27T04:40:10.889Z,5.20
2022-12-27T04:42:56.806Z,5.10
2022-12-27T04:45:42.613Z,5.10
2022-12-27T04:48:31.547Z,5.20
2022-12-27T04:51:18.234Z,5.10
2022-12-27T04:54:04.100Z,5.10
2022-12-27T04:56:33.662Z,5.20
2022-12-27T04:59:19.579Z,5.20
2022-12-27T05:02:05.223Z,5.20
2022-12-27T05:04:35.861Z,5.10
2022-12-27T05:07:20.160Z,5.00
2022-12-27T05:10:05.730Z,5.00
2022-12-27T05:12:52.796Z,4.90
2022-12-27T05:15:21.109Z,5.00
2022-12-27T05:17:49.458Z,5.00
2022-12-27T05:20:17.782Z,4.90
2022-12-27T05:23:03.894Z,4.90
2022-12-27T05:25:38.637Z,4.80
2022-12-27T05:28:10.579Z,4.90
2022-12-27T05:30:40.376Z,4.90
2022-12-27T05:33:08.942Z,4.80
2022-12-27T05:35:37.725Z,4.80
2022-12-27T05:38:06.264Z,4.80
2022-12-27T05:40:35.012Z,4.80
2022-12-27T05:43:04.891Z,4.90
2022-12-27T05:45:34.770Z,4.80
2022-12-27T05:48:03.080Z,4.80
2022-12-27T05:50:31.701Z,4.70
2022-12-27T05:53:00.037Z,4.60
2022-12-27T05:55:28.453Z,4.60
2022-12-27T05:57:56.786Z,4.50
2022-12-27T06:00:25.167Z,4.50
2022-12-27T06:02:55.248Z,4.50
2022-12-27T06:05:23.713Z,4.50
2022-12-27T06:07:52.159Z,4.60
2022-12-27T06:10:20.598Z,4.60
2022-12-27T06:12:49.005Z,4.60
2022-12-27T06:15:17.491Z,4.60
2022-12-27T06:17:45.824Z,4.60
2022-12-27T06:20:15.353Z,4.60
2022-12-27T06:22:44.180Z,4.60
2022-12-27T06:25:14.388Z,4.50
2022-12-27T06:27:43.371Z,4.60
2022-12-27T06:30:13.132Z,4.50
2022-12-27T06:32:41.436Z,4.50
2022-12-27T06:35:11.219Z,4.40
2022-12-27T06:37:41.218Z,4.40
2022-12-27T06:40:10.742Z,4.40
2022-12-27T06:42:39.277Z,4.40
2022-12-27T06:45:09.484Z,4.40
2022-12-27T06:47:37.896Z,4.50
2022-12-27T06:50:06.863Z,4.50
2022-12-27T06:52:35.356Z,4.60
2022-12-27T06:55:05.460Z,4.60
2022-12-27T06:57:33.843Z,4.60
2022-12-27T07:00:02.291Z,4.60
2022-12-27T07:02:31.138Z,4.60
2022-12-27T07:04:59.375Z,4.80
2022-12-27T07:07:27.803Z,4.80
2022-12-27T07:09:56.219Z,4.80
2022-12-27T07:12:25.975Z,4.90
2022-12-27T07:14:54.311Z,4.90
2022-12-27T07:17:22.690Z,4.90
2022-12-27T07:19:51.095Z,4.90
2022-12-27T07:22:19.684Z,4.90
2022-12-27T07:24:48.055Z,4.90
2022-12-27T07:27:16.496Z,4.80
2022-12-27T07:29:46.280Z,4.80
2022-12-27T07:32:14.717Z,4.80
2022-12-27T07:34:43.673Z,4.80
2022-12-27T07:37:12.069Z,4.80
2022-12-27T07:39:40.328Z,4.70
2022-12-27T07:42:09.008Z,4.80
2022-12-27T07:44:37.488Z,4.80
2022-12-27T07:47:07.210Z,4.90
2022-12-27T07:49:35.667Z,4.90
2022-12-27T07:52:04.111Z,5.10
2022-12-27T07:54:32.376Z,5.50
2022-12-27T07:57:00.789Z,5.40
2022-12-27T07:59:29.576Z,5.40
2022-12-27T08:02:07.647Z,5.30
2022-12-27T08:04:39.117Z,5.40
2022-12-27T08:07:12.861Z,5.60
2022-12-27T08:09:43.060Z,5.60
2022-12-27T08:12:13.491Z,5.50
2022-12-27T08:14:42.249Z,5.60
2022-12-27T08:17:17.444Z,5.40
2022-12-27T08:19:47.128Z,5.40
2022-12-27T08:22:16.863Z,5.50
2022-12-27T08:24:45.329Z,5.40
2022-12-27T08:27:13.983Z,5.40
2022-12-27T08:29:42.395Z,5.60
2022-12-27T08:32:10.809Z,5.60
2022-12-27T08:34:39.277Z,5.40
2022-12-27T08:37:09.425Z,5.50
2022-12-27T08:39:37.677Z,5.40
2022-12-27T08:42:06.333Z,5.40
2022-12-27T08:44:34.797Z,5.50
2022-12-27T08:47:04.531Z,5.60
2022-12-27T08:49:33.060Z,5.60
2022-12-27T08:52:01.422Z,5.70
2022-12-27T08:54:31.084Z,5.80
2022-12-27T08:56:59.552Z,6.10
2022-12-27T08:59:27.996Z,6.10
2022-12-27T09:01:56.582Z,6.10
2022-12-27T09:04:25.105Z,6.60
2022-12-27T09:06:53.560Z,6.90
2022-12-27T09:09:22.240Z,7.20
2022-12-27T09:11:52.020Z,6.90
2022-12-27T09:14:21.267Z,6.80
2022-12-27T09:16:49.600Z,6.80
2022-12-27T09:19:17.889Z,7.00
2022-12-27T09:21:46.602Z,6.90
2022-12-27T09:24:15.611Z,6.80
2022-12-27T09:26:44.049Z,7.10
2022-12-27T09:29:13.923Z,7.20
2022-12-27T09:31:42.382Z,7.40
2022-12-27T09:34:11.439Z,8.00
2022-12-27T09:36:40.803Z,7.70
2022-12-27T09:39:10.295Z,8.50
2022-12-27T09:42:45.024Z,7.90
2022-12-27T09:44:47.200Z,7.40
2022-12-27T09:47:20.479Z,7.10
2022-12-27T09:49:52.601Z,7.00
2022-12-27T09:52:25.874Z,7.00
2022-12-27T09:55:04.688Z,7.00
2022-12-27T09:57:38.424Z,7.00
2022-12-27T10:00:15.875Z,6.90
2022-12-27T10:02:45.852Z,7.00
2022-12-27T10:05:21.972Z,7.10
2022-12-27T10:08:00.831Z,7.30
2022-12-27T10:10:39.847Z,8.80
2022-12-27T10:13:24.691Z,10.50
2022-12-27T10:16:06.269Z,10.80
2022-12-27T10:18:45.948Z,11.40
2022-12-27T10:21:21.099Z,11.20
2022-12-27T10:23:55.359Z,11.30
2022-12-27T10:26:23.859Z,10.40
2022-12-27T10:28:57.575Z,10.10
2022-12-27T10:31:27.955Z,9.50
2022-12-27T10:33:56.362Z,10.30
2022-12-27T10:36:27.453Z,11.00
2022-12-27T10:38:56.118Z,11.70
2022-12-27T10:41:41.533Z,11.70
2022-12-27T10:44:12.670Z,12.30
2022-12-27T10:46:44.614Z,12.10
2022-12-27T10:49:24.457Z,11.80
2022-12-27T10:51:56.956Z,10.70
2022-12-27T10:54:27.114Z,10.20
2022-12-27T10:56:56.614Z,10.30
2022-12-27T10:59:26.375Z,10.20
2022-12-27T11:02:18.646Z,10.40
2022-12-27T11:05:01.997Z,10.30
2022-12-27T11:07:32.328Z,10.20
2022-12-27T11:10:10.297Z,8.90
2022-12-27T11:12:38.714Z,8.20
2022-12-27T11:15:18.655Z,7.90
2022-12-27T11:17:50.694Z,7.70
2022-12-27T11:20:22.824Z,7.60
2022-12-27T11:22:53.786Z,7.70
2022-12-27T11:25:22.830Z,7.60
2022-12-27T11:27:54.753Z,7.60
2022-12-27T11:30:26.158Z,8.00
2022-12-27T11:32:56.807Z,8.50
2022-12-27T11:35:25.383Z,8.40
2022-12-27T11:37:53.860Z,8.70
2022-12-27T11:40:26.549Z,9.10
2022-12-27T11:43:02.347Z,9.50
2022-12-27T11:45:37.864Z,10.00
2022-12-27T11:48:20.686Z,9.90
2022-12-27T11:51:03.598Z,10.00
2022-12-27T11:54:00.046Z,9.80
2022-12-27T11:56:30.043Z,9.70
2022-12-27T11:59:29.207Z,10.70
2022-12-27T12:02:27.582Z,10.60
2022-12-27T12:05:21.978Z,10.30
2022-12-27T12:08:05.059Z,10.20
2022-12-27T12:10:44.128Z,10.20
2022-12-27T12:13:39.513Z,10.20
2022-12-27T12:16:25.055Z,10.90
2022-12-27T12:19:13.088Z,10.60
2022-12-27T12:21:53.246Z,10.80
2022-12-27T12:24:51.034Z,11.00
2022-12-27T12:27:42.401Z,10.70
2022-12-27T12:30:27.432Z,11.30
2022-12-27T12:33:16.382Z,11.40
2022-12-27T12:36:07.293Z,11.20
2022-12-27T12:38:42.362Z,11.60
2022-12-27T12:41:30.900Z,11.30
2022-12-27T12:44:27.126Z,12.20
2022-12-27T12:47:05.675Z,11.30
2022-12-27T12:49:54.311Z,11.90
2022-12-27T12:52:46.874Z,12.10
2022-12-27T12:55:38.541Z,11.30
2022-12-27T12:58:26.984Z,11.00
2022-12-27T13:01:14.423Z,11.00
2022-12-27T13:04:12.915Z,10.90
2022-12-27T13:07:11.431Z,10.40
2022-12-27T13:09:56.601Z,10.80
2022-12-27T13:12:32.842Z,10.40
2022-12-27T13:15:20.526Z,10.30
2022-12-27T13:18:02.394Z,10.60
2022-12-27T13:20:49.513Z,10.50
2022-12-27T13:23:28.976Z,10.80
2022-12-27T13:26:08.161Z,11.50
2022-12-27T13:28:44.613Z,11.10
2022-12-27T13:31:30.052Z,10.90
2022-12-27T13:34:08.872Z,11.30
2022-12-27T13:37:02.445Z,10.90
2022-12-27T13:39:42.377Z,11.30
2022-12-27T13:42:39.855Z,11.00
2022-12-27T13:45:23.325Z,11.10
2022-12-27T13:48:04.337Z,11.00
2022-12-27T13:51:08.261Z,10.70
2022-12-27T13:54:01.186Z,11.10
2022-12-27T13:59:49.117Z,12.20
2022-12-27T14:02:44.965Z,12.60
2022-12-27T14:05:37.862Z,12.20
2022-12-27T14:08:20.021Z,11.70
2022-12-27T14:10:55.240Z,11.80
2022-12-27T14:13:33.185Z,11.30
2022-12-27T14:16:23.716Z,11.60
2022-12-27T14:19:11.108Z,12.20
2022-12-27T14:22:10.259Z,12.50
2022-12-27T14:25:08.534Z,12.30
2022-12-27T14:28:01.908Z,11.70
2022-12-27T14:31:05.479Z,11.10
2022-12-27T14:33:58.677Z,11.40
2022-12-27T14:37:06.832Z,11.20
2022-12-27T14:40:23.579Z,11.60
2022-12-27T14:43:35.698Z,11.10
2022-12-27T14:46:31.603Z,11.10
2022-12-27T14:49:41.428Z,11.10
2022-12-27T14:52:51.479Z,11.50
2022-12-27T14:55:41.648Z,11.60
2022-12-27T14:58:37.129Z,10.80
2022-12-27T15:01:11.830Z,11.10
2022-12-27T15:03:55.586Z,10.70
2022-12-27T15:06:41.247Z,10.50
2022-12-27T15:09:24.036Z,10.70
2022-12-27T15:12:04.431Z,10.50
2022-12-27T15:14:51.951Z,10.10
2022-12-27T15:17:27.623Z,10.30
2022-12-27T15:20:13.298Z,10.90
2022-12-27T15:22:53.419Z,11.10
2022-12-27T15:25:31.124Z,11.30
2022-12-27T15:28:08.069Z,11.60
2022-12-27T15:30:45.171Z,12.20
2022-12-27T15:33:22.975Z,11.80
2022-12-27T15:36:02.050Z,11.60
2022-12-27T15:38:54.052Z,11.40
2022-12-27T15:41:33.819Z,11.30
2022-12-27T15:44:17.255Z,11.70
2022-12-27T15:47:21.549Z,11.40
2022-12-27T15:50:28.232Z,11.10
2022-12-27T15:53:11.812Z,10.60
2022-12-27T15:56:10.815Z,10.50
2022-12-27T15:58:41.146Z,10.20
2022-12-27T16:01:29.881Z,10.10
2022-12-27T16:03:59.792Z,9.80
2022-12-27T16:06:51.731Z,9.80
2022-12-27T16:09:35.616Z,9.80
2022-12-27T16:12:09.552Z,9.70
2022-12-27T16:14:41.144Z,9.60
2022-12-27T16:17:31.120Z,9.50
2022-12-27T16:20:13.178Z,9.50
2022-12-27T16:22:44.631Z,9.40
2022-12-27T16:25:34.495Z,9.70
2022-12-27T16:28:07.718Z,9.70
2022-12-27T16:30:49.141Z,9.50
2022-12-27T16:33:38.633Z,9.80
2022-12-27T16:36:15.355Z,10.00
2022-12-27T16:38:49.001Z,10.00
2022-12-27T16:41:33.801Z,10.30
2022-12-27T16:44:15.914Z,10.10
2022-12-27T16:47:01.699Z,10.20
2022-12-27T16:49:55.627Z,10.00
2022-12-27T16:52:54.101Z,10.10
2022-12-27T16:55:52.173Z,10.50
2022-12-27T16:58:33.156Z,11.10
2022-12-27T17:01:03.129Z,10.90
2022-12-27T17:03:45.083Z,11.50
2022-12-27T17:06:56.016Z,11.00
2022-12-27T17:09:42.456Z,11.10
2022-12-27T17:12:23.578Z,11.20
2022-12-27T17:15:00.307Z,11.20
2022-12-27T17:17:29.966Z,11.10
2022-12-27T17:20:03.704Z,11.40
2022-12-27T17:22:35.235Z,10.40
2022-12-27T17:25:04.852Z,9.20
2022-12-27T17:28:00.998Z,8.60
2022-12-27T17:30:38.075Z,8.50
2022-12-27T17:33:22.841Z,8.30
2022-12-27T17:36:23.762Z,8.20
2022-12-27T17:39:04.352Z,8.20
2022-12-27T17:41:57.858Z,8.10
2022-12-27T17:44:40.861Z,7.70
2022-12-27T17:47:26.939Z,7.70
2022-12-27T17:49:59.022Z,7.60
2022-12-27T17:52:46.254Z,7.60
2022-12-27T17:55:37.440Z,7.50
2022-12-27T17:58:08.217Z,7.50
2022-12-27T18:00:41.602Z,7.50
2022-12-27T18:03:13.804Z,7.80
2022-12-27T18:05:44.815Z,7.70
2022-12-27T18:08:26.061Z,7.80
2022-12-27T18:10:54.554Z,7.80
2022-12-27T18:13:26.587Z,7.80
2022-12-27T18:15:55.546Z,7.60
2022-12-27T18:18:28.157Z,7.70
2022-12-27T18:20:59.789Z,7.60
2022-12-27T18:23:29.785Z,7.60
2022-12-27T18:26:09.236Z,7.90
2022-12-27T18:28:41.378Z,7.70
2022-12-27T18:31:15.545Z,7.60
2022-12-27T18:33:46.403Z,7.50
2022-12-27T18:36:20.783Z,7.40
2022-12-27T18:38:55.890Z,7.80
2022-12-27T18:41:25.971Z,8.70
2022-12-27T18:44:00.131Z,9.00
2022-12-27T18:46:31.045Z,9.90
2022-12-27T18:48:59.744Z,10.30
2022-12-27T18:51:33.816Z,10.10
2022-12-27T18:54:04.111Z,10.60
2022-12-27T18:56:34.011Z,9.60
2022-12-27T18:59:19.459Z,10.70
2022-12-27T19:01:48.972Z,10.60
2022-12-27T19:04:25.954Z,11.00
2022-12-27T19:06:57.965Z,11.40
2022-12-27T19:09:29.892Z,10.90
2022-12-27T19:12:00.960Z,11.50
2022-12-27T19:14:43.653Z,11.50
2022-12-27T19:17:19.609Z,10.90
2022-12-27T19:19:50.308Z,10.80
2022-12-27T19:22:34.474Z,11.30
2022-12-27T19:25:06.046Z,11.50
2022-12-27T19:27:34.717Z,11.50
2022-12-27T19:30:03.283Z,11.30
2022-12-27T19:32:35.636Z,10.50
2022-12-27T19:35:06.111Z,10.90
2022-12-27T19:37:35.867Z,11.70
2022-12-27T19:40:06.729Z,11.50
2022-12-27T19:42:36.094Z,11.60
2022-12-27T19:45:04.513Z,11.40
2022-12-27T19:47:34.864Z,11.60
2022-12-27T19:50:04.381Z,11.70
2022-12-27T19:52:32.938Z,11.70
2022-12-27T19:55:05.856Z,11.80
2022-12-27T19:57:36.595Z,12.20
2022-12-27T20:00:12.313Z,12.70
2022-12-27T20:02:41.430Z,12.10
2022-12-27T20:05:10.819Z,11.90
2022-12-27T20:07:40.292Z,11.60
2022-12-27T20:10:12.223Z,12.20
2022-12-27T20:12:41.952Z,12.20
2022-12-27T20:15:10.772Z,12.30
2022-12-27T20:17:44.601Z,12.80
2022-12-27T20:20:13.804Z,13.30
2022-12-27T20:22:42.456Z,13.00
2022-12-27T20:25:11.610Z,13.30
2022-12-27T20:27:41.315Z,12.80
2022-12-27T20:30:10.817Z,13.80
2022-12-27T20:32:39.755Z,13.30
2022-12-27T20:35:08.924Z,13.10
2022-12-27T20:37:37.486Z,13.00
2022-12-27T20:40:07.563Z,13.40
2022-12-27T20:42:36.459Z,12.80
2022-12-27T20:45:07.050Z,12.70
2022-12-27T20:47:35.755Z,13.10
2022-12-27T20:50:04.530Z,13.70
2022-12-27T20:52:34.330Z,13.00
2022-12-27T20:55:02.749Z,12.50
2022-12-27T20:57:31.167Z,13.00
2022-12-27T20:59:59.455Z,13.00
2022-12-27T21:02:30.124Z,12.80
2022-12-27T21:04:58.507Z,12.70
2022-12-27T21:07:27.067Z,12.10
2022-12-27T21:09:55.568Z,12.60
2022-12-27T21:12:24.009Z,12.20
2022-12-27T21:14:52.485Z,12.20
2022-12-27T21:17:21.020Z,12.80
2022-12-27T21:19:50.718Z,12.30
2022-12-27T21:22:19.437Z,11.70
2022-12-27T21:24:47.785Z,12.30
2022-12-27T21:27:16.306Z,12.30
2022-12-27T21:29:44.936Z,11.60
2022-12-27T21:32:13.369Z,11.40
2022-12-27T21:34:41.842Z,11.00
2022-12-27T21:37:13.471Z,11.30
2022-12-27T21:39:42.355Z,11.90
2022-12-27T21:42:12.427Z,12.00
2022-12-27T21:44:40.890Z,11.70
2022-12-27T21:47:09.464Z,11.80
2022-12-27T21:49:40.481Z,12.20
2022-12-27T21:52:10.107Z,11.90
2022-12-27T21:54:38.530Z,11.70
2022-12-27T21:57:06.793Z,12.60
2022-12-27T21:59:35.205Z,12.60
2022-12-27T22:02:04.266Z,12.40
2022-12-27T22:04:35.544Z,12.50
2022-12-27T22:07:04.011Z,12.50
2022-12-27T22:09:33.509Z,12.20
2022-12-27T22:12:01.933Z,12.50
2022-12-27T22:14:36.671Z,12.00
2022-12-27T22:17:06.132Z,11.90
2022-12-27T22:19:34.560Z,12.00
2022-12-27T22:22:03.052Z,12.00
2022-12-27T22:24:31.521Z,11.40
2022-12-27T22:27:01.001Z,12.00
2022-12-27T22:29:35.009Z,12.40
2022-12-27T22:32:03.874Z,13.20
2022-12-27T22:34:32.451Z,12.70
2022-12-27T22:37:00.827Z,13.00
2022-12-27T22:39:29.678Z,13.10
2022-12-27T22:41:58.356Z,13.80
2022-12-27T22:44:28.532Z,14.20
2022-12-27T22:47:28.973Z,13.70
2022-12-27T22:49:47.646Z,13.50
2022-12-27T22:52:16.056Z,14.10
2022-12-27T22:55:04.645Z,13.60
2022-12-27T22:57:32.668Z,13.40
2022-12-27T23:00:02.564Z,13.00
2022-12-27T23:02:31.385Z,13.00
2022-12-27T23:05:00.017Z,13.20
2022-12-27T23:08:04.789Z,13.10
2022-12-27T23:10:17.032Z,13.40
2022-12-27T23:12:45.433Z,14.30
2022-12-27T23:15:15.210Z,14.20
2022-12-27T23:17:43.616Z,14.30
2022-12-27T23:20:12.869Z,13.60
2022-12-27T23:22:41.425Z,14.40
2022-12-27T23:25:10.034Z,14.20
2022-12-27T23:27:38.424Z,13.50
2022-12-27T23:30:07.734Z,13.60
2022-12-27T23:32:37.332Z,13.70
2022-12-27T23:35:06.055Z,14.20
2022-12-27T23:37:34.733Z,14.70
2022-12-27T23:40:03.189Z,14.50
2022-12-27T23:42:31.616Z,14.00
2022-12-27T23:45:00.158Z,14.70
2022-12-27T23:47:28.864Z,14.70
2022-12-27T23:49:58.432Z,14.10
2022-12-27T23:52:26.920Z,14.20
2022-12-27T23:54:55.193Z,14.10
2022-12-27T23:57:23.654Z,14.30
2022-12-27T23:59:54.528Z,14.40
